Time;durP1;ratioP1;P1;durP2;ratioP2;P2;SDS_P1;SDS_P2;PMS_P1;PMS_P2;Temp;Humidity;BMP_temperature;BMP_pressure;BME280_temperature;BME280_humidity;BME280_pressure;Samples;Min_cycle;Max_cycle;Signal;HPM_P1;HPM_P2
2021/05/14 00:00:29;;;;;;;3.67;1.65;;;9.80;88.10;;;;;;5039234;28;20056;-79
2021/05/14 00:02:55;;;;;;;1.90;1.70;;;9.80;88.30;;;;;;4996506;28;20484;-77
2021/05/14 00:05:21;;;;;;;2.25;1.70;;;9.70;88.50;;;;;;4995274;28;20043;-77
2021/05/14 00:07:48;;;;;;;1.60;1.50;;;9.70;88.10;;;;;;4997238;28;20029;-77
2021/05/14 00:10:18;;;;;;;1.35;1.25;;;9.70;87.90;;;;;;5004568;28;20049;-77
2021/05/14 00:12:44;;;;;;;1.65;1.55;;;9.70;87.90;;;;;;5018535;28;21779;-77
2021/05/14 00:15:10;;;;;;;1.50;1.40;;;9.60;88.10;;;;;;5010084;28;20036;-78
2021/05/14 00:17:36;;;;;;;1.77;1.55;;;9.60;88.00;;;;;;5023147;28;20026;-78
2021/05/14 00:20:05;;;;;;;1.63;1.52;;;9.50;87.90;;;;;;5030133;28;20438;-78
2021/05/14 00:22:31;;;;;;;2.05;1.67;;;9.50;88.00;;;;;;5016952;28;20038;-77
2021/05/14 00:24:57;;;;;;;1.75;1.65;;;9.40;87.90;;;;;;5017565;28;21260;-76
2021/05/14 00:27:22;;;;;;;2.25;1.83;;;9.40;88.10;;;;;;5013997;28;20037;-77
2021/05/14 00:29:48;;;;;;;1.75;1.65;;;9.40;88.40;;;;;;5014988;28;20728;-77
2021/05/14 00:32:14;;;;;;;1.90;1.70;;;9.40;88.70;;;;;;5018391;28;20042;-77
2021/05/14 00:34:39;;;;;;;1.55;1.45;;;9.40;88.70;;;;;;5024322;28;20782;-78
2021/05/14 00:37:05;;;;;;;2.08;1.40;;;9.30;88.30;;;;;;5030084;28;20037;-77
2021/05/14 00:39:31;;;;;;;2.13;1.55;;;9.30;88.40;;;;;;5018712;28;20033;-77
2021/05/14 00:41:56;;;;;;;1.45;1.30;;;9.30;88.40;;;;;;5026714;28;20519;-78
2021/05/14 00:44:33;;;;;;;1.83;1.67;;;9.30;88.80;;;;;;5025661;28;20167;-77
2021/05/14 00:47:03;;;;;;;1.67;1.58;;;9.20;89.00;;;;;;5029648;28;20033;-78
2021/05/14 00:49:29;;;;;;;1.73;1.63;;;9.20;88.90;;;;;;5013154;28;20025;-77
2021/05/14 00:51:57;;;;;;;1.65;1.50;;;9.20;89.10;;;;;;5021020;28;20104;-78
2021/05/14 00:54:22;;;;;;;1.50;1.40;;;9.20;88.90;;;;;;5027777;28;20082;-77
2021/05/14 00:56:48;;;;;;;5.05;2.33;;;9.20;89.00;;;;;;5029200;28;20106;-77
2021/05/14 00:59:14;;;;;;;1.75;1.55;;;9.20;89.00;;;;;;5016367;28;20048;-77
2021/05/14 01:01:40;;;;;;;3.40;1.60;;;9.20;88.60;;;;;;5025580;28;20038;-78
2021/05/14 01:04:06;;;;;;;3.45;1.40;;;9.20;88.80;;;;;;5018628;28;20151;-77
2021/05/14 01:06:32;;;;;;;1.70;1.60;;;9.20;88.50;;;;;;5012335;28;20483;-77
2021/05/14 01:08:59;;;;;;;2.88;2.00;;;9.20;88.50;;;;;;5020697;28;20025;-77
2021/05/14 01:11:25;;;;;;;2.35;1.63;;;9.10;88.60;;;;;;5019722;28;20055;-78
2021/05/14 01:13:51;;;;;;;1.25;1.25;;;9.20;88.50;;;;;;5026990;28;20025;-78
2021/05/14 01:16:16;;;;;;;2.97;1.67;;;9.20;88.30;;;;;;5025735;28;20018;-77
2021/05/14 01:18:42;;;;;;;2.30;1.63;;;9.10;88.20;;;;;;5024323;28;20040;-79
2021/05/14 01:21:08;;;;;;;4.70;1.58;;;9.10;88.00;;;;;;5017428;28;20163;-79
2021/05/14 01:23:34;;;;;;;2.15;1.50;;;9.10;88.10;;;;;;5026649;28;20519;-77
2021/05/14 01:26:00;;;;;;;2.30;1.85;;;9.10;88.50;;;;;;5011854;28;20033;-76
2021/05/14 01:28:26;;;;;;;2.20;1.55;;;9.00;88.40;;;;;;5028420;28;20502;-78
2021/05/14 01:30:53;;;;;;;3.50;1.83;;;9.00;88.20;;;;;;5029241;28;20031;-77
2021/05/14 01:33:19;;;;;;;1.60;1.50;;;9.00;88.00;;;;;;5016244;28;20872;-78
2021/05/14 01:35:45;;;;;;;1.63;1.52;;;9.00;88.20;;;;;;5025725;28;20044;-77
2021/05/14 01:38:11;;;;;;;1.80;1.70;;;8.90;87.90;;;;;;5025361;28;20038;-78
2021/05/14 01:40:37;;;;;;;2.53;1.58;;;8.90;88.10;;;;;;5020473;28;20021;-78
2021/05/14 01:43:03;;;;;;;1.80;1.70;;;8.90;88.10;;;;;;5024974;28;20017;-77
2021/05/14 01:45:29;;;;;;;1.75;1.45;;;8.90;88.10;;;;;;5032230;28;20020;-78
2021/05/14 01:47:55;;;;;;;2.00;1.20;;;8.80;88.70;;;;;;5025605;28;20028;-79
2021/05/14 01:50:21;;;;;;;3.22;1.60;;;8.80;87.80;;;;;;5024930;28;20022;-76
2021/05/14 01:52:47;;;;;;;3.35;1.50;;;8.80;87.60;;;;;;5025011;28;20466;-77
2021/05/14 01:55:13;;;;;;;1.48;1.38;;;8.70;88.10;;;;;;5035717;28;20029;-77
2021/05/14 01:57:38;;;;;;;1.80;1.60;;;8.70;88.70;;;;;;5027311;28;20151;-77
2021/05/14 02:00:07;;;;;;;1.65;1.52;;;8.70;87.60;;;;;;5036670;28;20116;-77
2021/05/14 02:02:33;;;;;;;1.65;1.55;;;8.60;87.80;;;;;;5019121;28;20484;-76
2021/05/14 02:04:59;;;;;;;2.70;1.67;;;8.60;88.30;;;;;;5013050;28;20423;-76
2021/05/14 02:07:24;;;;;;;1.50;1.40;;;8.50;88.40;;;;;;5019643;28;20017;-76
2021/05/14 02:09:52;;;;;;;1.50;1.33;;;8.50;87.20;;;;;;5028419;28;20029;-77
2021/05/14 02:12:18;;;;;;;6.57;1.52;;;8.40;87.10;;;;;;5031262;28;20026;-76
2021/05/14 02:14:43;;;;;;;43.80;2.55;;;8.30;86.80;;;;;;5028766;28;20482;-78
2021/05/14 02:17:09;;;;;;;1.48;1.33;;;8.00;87.80;;;;;;5029507;28;20033;-77
2021/05/14 02:19:35;;;;;;;1.60;1.50;;;8.00;88.60;;;;;;5024141;28;20060;-79
2021/05/14 02:22:02;;;;;;;1.63;1.52;;;8.00;89.10;;;;;;5028188;28;20032;-77
2021/05/14 02:24:27;;;;;;;1.40;1.30;;;8.00;88.90;;;;;;5025539;28;20024;-77
2021/05/14 02:26:53;;;;;;;2.17;1.40;;;7.90;88.60;;;;;;5028301;28;20033;-78
2021/05/14 02:29:19;;;;;;;1.58;1.40;;;7.90;88.30;;;;;;5028950;28;20025;-78
2021/05/14 02:31:44;;;;;;;2.78;1.50;;;8.00;88.30;;;;;;5023303;28;20116;-77
2021/05/14 02:34:10;;;;;;;1.40;1.30;;;7.90;88.30;;;;;;5023462;28;20056;-77
2021/05/14 02:36:35;;;;;;;1.45;1.35;;;8.00;88.30;;;;;;5035064;28;20061;-77
2021/05/14 02:39:01;;;;;;;1.40;1.30;;;8.00;88.30;;;;;;5018447;28;20026;-78
2021/05/14 02:41:27;;;;;;;1.52;1.42;;;8.00;88.30;;;;;;5028126;28;20033;-77
2021/05/14 02:43:53;;;;;;;1.60;1.50;;;7.90;87.50;;;;;;5022448;28;20100;-76
2021/05/14 02:46:18;;;;;;;1.67;1.58;;;7.80;87.60;;;;;;5030292;28;20113;-77
2021/05/14 02:48:44;;;;;;;1.60;1.50;;;7.70;87.40;;;;;;5021960;28;20029;-77
2021/05/14 02:51:09;;;;;;;1.48;1.38;;;7.60;87.30;;;;;;5024324;28;20133;-77
2021/05/14 02:53:35;;;;;;;2.63;1.35;;;7.60;87.60;;;;;;5024375;28;20095;-77
2021/05/14 02:56:01;;;;;;;1.88;1.40;;;7.60;87.90;;;;;;5032477;28;20033;-78
2021/05/14 02:58:26;;;;;;;1.38;1.23;;;7.50;88.10;;;;;;5026715;28;20198;-79
2021/05/14 03:00:52;;;;;;;1.88;1.50;;;7.50;88.90;;;;;;5026760;28;20068;-77
2021/05/14 03:03:17;;;;;;;1.30;1.20;;;7.50;87.80;;;;;;5024903;28;20120;-77
2021/05/14 03:05:43;;;;;;;6.13;1.40;;;7.40;86.30;;;;;;5025819;28;20065;-77
2021/05/14 03:08:09;;;;;;;3.42;1.23;;;7.20;86.70;;;;;;5025918;28;20171;-77
2021/05/14 03:10:34;;;;;;;1.65;1.20;;;7.10;86.30;;;;;;5019293;28;20103;-76
2021/05/14 03:13:00;;;;;;;1.10;1.10;;;7.00;86.50;;;;;;5027001;28;20033;-77
2021/05/14 03:15:26;;;;;;;4.20;1.80;;;7.00;87.60;;;;;;5020283;28;20023;-78
2021/05/14 03:17:51;;;;;;;2.80;1.50;;;7.00;88.10;;;;;;5023693;28;20032;-77
2021/05/14 03:20:17;;;;;;;1.42;1.33;;;7.00;88.60;;;;;;5026778;28;20017;-78
2021/05/14 03:22:43;;;;;;;2.42;1.77;;;7.10;88.50;;;;;;5031528;28;20033;-78
2021/05/14 03:25:10;;;;;;;3.78;1.70;;;7.10;88.70;;;;;;5030875;28;20079;-78
2021/05/14 03:27:36;;;;;;;3.40;1.70;;;7.10;88.50;;;;;;5030281;28;20587;-78
2021/05/14 03:30:04;;;;;;;1.92;1.73;;;7.00;88.60;;;;;;5020165;28;20060;-77
2021/05/14 03:32:30;;;;;;;1.70;1.60;;;7.00;88.60;;;;;;5019082;28;20450;-77
2021/05/14 03:34:56;;;;;;;1.42;1.33;;;7.00;88.70;;;;;;5025058;28;20025;-78
2021/05/14 03:37:21;;;;;;;2.25;1.52;;;7.00;88.50;;;;;;5028993;28;20676;-77
2021/05/14 03:39:51;;;;;;;1.27;1.27;;;6.90;88.20;;;;;;5029188;28;20728;-77
2021/05/14 03:42:25;;;;;;;1.30;1.30;;;6.90;88.50;;;;;;5025362;28;20018;-77
2021/05/14 03:44:52;;;;;;;6.90;1.70;;;6.90;88.40;;;;;;5021113;28;20025;-77
2021/05/14 03:47:18;;;;;;;1.65;1.40;;;6.90;88.20;;;;;;5027150;28;20396;-77
2021/05/14 03:49:44;;;;;;;1.70;1.60;;;6.90;88.20;;;;;;5019892;28;20022;-76
2021/05/14 03:52:12;;;;;;;1.75;1.65;;;6.90;88.30;;;;;;5030816;28;20103;-77
2021/05/14 03:54:39;;;;;;;1.47;1.37;;;6.90;88.50;;;;;;5009516;28;20064;-77
2021/05/14 03:57:05;;;;;;;1.45;1.20;;;6.90;88.70;;;;;;5017043;28;20342;-76
2021/05/14 03:59:31;;;;;;;2.10;1.40;;;6.90;88.50;;;;;;5026439;28;20037;-76
2021/05/14 04:01:59;;;;;;;3.28;1.30;;;6.80;88.90;;;;;;5031408;28;20034;-78
2021/05/14 04:04:24;;;;;;;1.42;1.17;;;6.80;88.20;;;;;;5022583;28;20029;-77
2021/05/14 04:06:51;;;;;;;5.78;1.58;;;6.80;88.00;;;;;;5035165;28;20021;-77
2021/05/14 04:09:28;;;;;;;1.02;1.02;;;6.60;85.80;;;;;;5025058;28;20091;-77
2021/05/14 04:14:38;;;;;;;1.25;1.20;;;6.30;85.50;;;;;;5030086;28;20037;-76
2021/05/14 04:17:06;;;;;;;1.30;1.20;;;6.30;87.20;;;;;;5026014;28;20036;-76
2021/05/14 04:19:32;;;;;;;1.75;1.50;;;6.30;87.50;;;;;;5030433;28;20380;-75
2021/05/14 04:22:00;;;;;;;2.17;1.25;;;6.40;87.90;;;;;;5014495;28;20037;-76
2021/05/14 04:24:26;;;;;;;1.48;1.38;;;6.40;88.30;;;;;;5028225;28;20024;-76
2021/05/14 04:26:54;;;;;;;1.50;1.40;;;6.50;88.60;;;;;;5013398;28;20037;-77
2021/05/14 04:29:21;;;;;;;1.30;1.23;;;6.50;88.40;;;;;;5036101;28;20403;-76
2021/05/14 04:31:47;;;;;;;1.67;1.58;;;6.60;88.20;;;;;;5017103;28;20075;-76
2021/05/14 04:34:14;;;;;;;1.60;1.50;;;6.60;88.60;;;;;;5020131;28;20032;-76
2021/05/14 04:36:41;;;;;;;2.17;1.50;;;6.70;88.60;;;;;;5028925;28;20030;-77
2021/05/14 04:39:08;;;;;;;2.05;1.48;;;6.70;89.20;;;;;;5026923;28;20033;-77
2021/05/14 04:41:35;;;;;;;1.25;1.23;;;6.80;89.10;;;;;;5015324;28;20117;-76
2021/05/14 04:44:00;;;;;;;3.88;1.67;;;6.80;89.40;;;;;;5024528;28;20033;-75
2021/05/14 04:46:26;;;;;;;2.10;1.45;;;6.80;89.60;;;;;;5022526;28;20014;-76
2021/05/14 04:48:52;;;;;;;1.60;1.50;;;6.90;90.20;;;;;;5024695;28;20061;-76
2021/05/14 04:51:18;;;;;;;3.58;1.63;;;6.90;89.50;;;;;;5027521;28;20503;-76
2021/05/14 04:53:45;;;;;;;2.03;1.50;;;7.00;89.50;;;;;;5021047;28;20523;-76
2021/05/14 04:56:13;;;;;;;1.83;1.73;;;7.00;89.30;;;;;;5030146;28;20427;-76
2021/05/14 04:58:38;;;;;;;2.33;1.88;;;7.00;89.20;;;;;;5042570;28;20191;-77
2021/05/14 05:01:04;;;;;;;2.22;1.98;;;7.00;89.20;;;;;;5024778;28;20524;-76
2021/05/14 05:03:30;;;;;;;1.70;1.60;;;7.00;89.00;;;;;;5023488;28;20401;-77
2021/05/14 05:05:56;;;;;;;1.50;1.40;;;7.00;89.10;;;;;;5022425;28;20033;-76
2021/05/14 05:08:22;;;;;;;2.00;1.80;;;7.10;89.40;;;;;;5022955;28;20028;-76
2021/05/14 05:10:47;;;;;;;2.22;1.75;;;7.10;89.50;;;;;;5032438;28;20017;-77
2021/05/14 05:13:13;;;;;;;1.60;1.50;;;7.20;89.60;;;;;;5013744;28;20037;-76
2021/05/14 05:15:38;;;;;;;3.25;1.90;;;7.30;89.80;;;;;;5028172;28;20026;-77
2021/05/14 05:18:04;;;;;;;2.47;1.80;;;7.40;90.00;;;;;;5035217;28;20200;-77
2021/05/14 05:20:30;;;;;;;2.90;1.90;;;7.50;90.00;;;;;;5025504;28;20060;-76
2021/05/14 05:22:56;;;;;;;2.17;1.90;;;7.50;89.80;;;;;;5019897;28;20029;-76
2021/05/14 05:25:22;;;;;;;1.90;1.80;;;7.60;89.90;;;;;;5026472;28;20034;-77
2021/05/14 05:27:47;;;;;;;3.22;2.40;;;7.70;90.10;;;;;;5020752;28;20536;-77
2021/05/14 05:30:15;;;;;;;4.45;2.28;;;7.80;90.10;;;;;;5026426;28;20029;-77
2021/05/14 05:32:41;;;;;;;3.53;2.10;;;7.90;90.00;;;;;;5020142;28;20099;-76
2021/05/14 05:35:07;;;;;;;3.38;2.25;;;8.00;90.10;;;;;;5028815;28;20630;-77
2021/05/14 05:37:32;;;;;;;3.50;2.10;;;8.10;90.00;;;;;;5023285;28;20103;-77
2021/05/14 05:39:58;;;;;;;4.40;2.13;;;8.20;90.40;;;;;;5039572;28;20061;-77
2021/05/14 05:42:23;;;;;;;3.35;2.05;;;8.30;90.10;;;;;;5024454;28;20049;-76
2021/05/14 05:44:49;;;;;;;2.30;1.63;;;8.40;90.00;;;;;;5023334;28;20768;-77
2021/05/14 05:47:15;;;;;;;2.70;1.88;;;8.50;89.80;;;;;;5025643;28;20049;-77
2021/05/14 05:49:40;;;;;;;1.80;1.70;;;8.50;88.60;;;;;;5023141;28;21999;-76
2021/05/14 05:52:06;;;;;;;1.95;1.80;;;8.60;87.50;;;;;;5035805;28;20087;-77
2021/05/14 05:54:32;;;;;;;1.67;1.40;;;8.70;87.80;;;;;;5019913;28;20029;-75
2021/05/14 05:56:59;;;;;;;2.13;1.60;;;8.80;88.80;;;;;;5024154;28;20068;-75
2021/05/14 05:59:25;;;;;;;2.05;1.85;;;8.80;87.70;;;;;;5026393;28;20736;-76
2021/05/14 06:01:50;;;;;;;3.67;2.10;;;9.00;88.00;;;;;;5019362;28;20113;-76
2021/05/14 06:04:16;;;;;;;1.98;1.80;;;9.10;87.40;;;;;;5016668;28;20138;-76
2021/05/14 06:06:42;;;;;;;2.22;1.90;;;9.20;87.40;;;;;;5021858;28;20028;-76
2021/05/14 06:09:08;;;;;;;2.25;1.80;;;9.30;87.60;;;;;;5021493;28;20116;-76
2021/05/14 06:11:34;;;;;;;2.88;1.90;;;9.30;86.60;;;;;;5023734;28;20191;-76
2021/05/14 06:13:59;;;;;;;2.03;1.67;;;9.40;86.60;;;;;;5025628;28;20029;-76
2021/05/14 06:16:26;;;;;;;1.58;1.48;;;9.60;88.20;;;;;;5024322;28;20026;-77
2021/05/14 06:19:37;;;;;;;1.75;1.48;;;9.70;84.20;;;;;;5018464;28;20022;-77
2021/05/14 06:21:48;;;;;;;1.52;1.40;;;9.70;84.30;;;;;;5001311;28;20065;-76
2021/05/14 06:24:15;;;;;;;2.97;1.35;;;9.60;82.40;;;;;;5020216;28;20022;-76
2021/05/14 06:26:45;;;;;;;2.00;1.80;;;9.60;83.50;;;;;;5027313;28;20381;-75
2021/05/14 06:29:11;;;;;;;3.00;1.60;;;9.70;83.90;;;;;;5025277;28;20045;-76
2021/05/14 06:31:37;;;;;;;2.60;1.60;;;9.80;85.10;;;;;;5026342;28;20406;-76
2021/05/14 06:34:04;;;;;;;1.27;1.27;;;9.90;84.40;;;;;;5022824;28;20479;-76
2021/05/14 06:36:29;;;;;;;1.52;1.42;;;10.00;84.50;;;;;;5025623;28;20167;-76
2021/05/14 06:38:55;;;;;;;2.85;1.65;;;10.10;83.30;;;;;;5028217;28;20096;-76
2021/05/14 06:41:21;;;;;;;3.70;1.65;;;10.20;83.70;;;;;;5030507;28;20021;-76
2021/05/14 06:43:47;;;;;;;2.58;1.65;;;10.30;82.30;;;;;;5024091;28;20028;-76
2021/05/14 06:46:12;;;;;;;1.85;1.27;;;10.40;81.70;;;;;;5026327;28;20036;-76
2021/05/14 06:48:41;;;;;;;3.50;1.40;;;10.40;80.70;;;;;;5008273;28;20399;-75
2021/05/14 06:51:07;;;;;;;1.60;1.33;;;10.50;81.50;;;;;;5005937;28;20519;-76
2021/05/14 06:53:32;;;;;;;3.05;1.38;;;10.60;82.00;;;;;;5012724;28;20082;-77
2021/05/14 06:55:58;;;;;;;0.93;0.90;;;10.70;81.10;;;;;;5012759;28;20407;-77
2021/05/14 06:58:24;;;;;;;0.98;0.90;;;10.70;79.20;;;;;;5011660;28;20034;-77
2021/05/14 07:00:49;;;;;;;2.67;1.02;;;10.80;77.90;;;;;;5014945;28;20403;-76
2021/05/14 07:03:15;;;;;;;1.35;1.10;;;10.80;78.90;;;;;;5015641;28;20029;-77
2021/05/14 07:05:41;;;;;;;0.85;0.85;;;10.90;78.30;;;;;;5014210;28;20573;-76
2021/05/14 07:08:06;;;;;;;1.20;1.10;;;11.00;77.80;;;;;;5014955;28;20034;-77
2021/05/14 07:10:32;;;;;;;1.20;1.10;;;11.00;77.90;;;;;;5017823;28;20119;-76
2021/05/14 07:12:58;;;;;;;1.13;1.02;;;11.10;77.30;;;;;;5019124;28;20036;-77
2021/05/14 07:15:24;;;;;;;0.93;0.93;;;11.20;76.30;;;;;;5031250;28;20021;-77
2021/05/14 07:17:51;;;;;;;1.08;1.08;;;11.30;76.30;;;;;;5025272;28;21086;-76
2021/05/14 07:20:18;;;;;;;1.30;1.20;;;11.30;74.70;;;;;;5020283;28;20033;-76
2021/05/14 07:22:43;;;;;;;1.00;1.00;;;11.30;76.30;;;;;;5015336;28;20032;-77
2021/05/14 07:25:09;;;;;;;1.15;0.90;;;11.50;76.00;;;;;;5021840;28;20017;-76
2021/05/14 07:27:35;;;;;;;2.53;1.10;;;11.50;75.00;;;;;;5023736;28;20092;-76
2021/05/14 07:30:01;;;;;;;0.90;0.90;;;11.50;75.60;;;;;;5025057;28;20112;-77
2021/05/14 07:32:27;;;;;;;2.90;1.10;;;11.60;76.80;;;;;;5025337;28;20479;-77
2021/05/14 07:34:53;;;;;;;0.95;0.85;;;11.70;74.00;;;;;;5021879;28;20120;-77
2021/05/14 07:37:19;;;;;;;1.65;0.85;;;11.80;75.30;;;;;;5024999;28;20124;-77
2021/05/14 07:39:45;;;;;;;1.13;1.02;;;11.80;75.40;;;;;;5028585;28;20026;-77
2021/05/14 07:42:11;;;;;;;1.48;1.23;;;11.90;73.90;;;;;;5021580;28;20574;-77
2021/05/14 07:44:37;;;;;;;0.98;0.90;;;12.00;73.40;;;;;;5025064;28;20022;-77
2021/05/14 07:47:04;;;;;;;1.30;0.90;;;12.10;72.90;;;;;;5023236;28;20048;-76
2021/05/14 07:49:30;;;;;;;0.80;0.80;;;12.10;73.30;;;;;;5020273;28;20374;-77
2021/05/14 07:51:56;;;;;;;1.15;1.02;;;12.10;70.70;;;;;;5021711;28;20037;-77
2021/05/14 07:54:21;;;;;;;0.73;0.73;;;12.20;72.00;;;;;;5022438;28;20109;-77
2021/05/14 07:56:47;;;;;;;1.02;1.00;;;12.20;71.80;;;;;;5021173;28;20041;-77
2021/05/14 07:59:13;;;;;;;1.38;1.13;;;12.20;70.80;;;;;;5021542;28;20539;-76
2021/05/14 08:01:38;;;;;;;1.20;1.10;;;12.30;69.40;;;;;;5036132;28;20124;-77
2021/05/14 08:04:05;;;;;;;1.35;0.80;;;12.40;73.60;;;;;;5023502;28;20033;-77
2021/05/14 08:06:32;;;;;;;1.20;1.10;;;12.50;69.70;;;;;;5023435;28;20492;-76
2021/05/14 08:08:59;;;;;;;2.78;0.80;;;12.60;69.00;;;;;;5020216;28;20018;-75
2021/05/14 08:11:25;;;;;;;2.37;0.80;;;12.70;66.20;;;;;;5022037;28;20017;-75
2021/05/14 08:13:51;;;;;;;1.42;1.27;;;12.70;69.60;;;;;;5020998;28;20116;-75
2021/05/14 08:16:16;;;;;;;3.25;0.90;;;12.90;71.00;;;;;;5025825;28;20017;-76
2021/05/14 08:18:42;;;;;;;0.40;0.40;;;13.00;69.20;;;;;;5014407;28;20056;-75
2021/05/14 08:21:08;;;;;;;0.70;0.70;;;13.00;67.50;;;;;;5008143;28;20052;-75
2021/05/14 08:23:33;;;;;;;0.60;0.60;;;13.00;66.60;;;;;;5011919;28;20037;-75
2021/05/14 08:25:59;;;;;;;1.75;0.80;;;13.00;68.40;;;;;;5010928;28;20440;-75
2021/05/14 08:28:25;;;;;;;1.55;0.80;;;13.10;67.60;;;;;;5012360;28;21201;-75
2021/05/14 08:30:51;;;;;;;1.25;0.90;;;12.90;67.20;;;;;;5018016;28;20045;-75
2021/05/14 08:33:17;;;;;;;0.60;0.60;;;12.80;67.00;;;;;;5016428;28;20034;-75
2021/05/14 08:35:43;;;;;;;1.65;0.90;;;12.80;67.70;;;;;;5017864;28;20052;-75
2021/05/14 08:38:10;;;;;;;0.73;0.73;;;12.90;66.40;;;;;;5017912;28;20061;-76
2021/05/14 08:40:38;;;;;;;1.23;0.90;;;13.00;66.00;;;;;;5013392;28;20595;-76
2021/05/14 08:43:04;;;;;;;3.63;0.80;;;13.10;66.60;;;;;;5021856;28;20056;-76
2021/05/14 08:45:30;;;;;;;1.45;0.80;;;13.10;65.60;;;;;;5024426;28;20116;-76
2021/05/14 08:47:57;;;;;;;2.65;0.77;;;13.10;66.60;;;;;;5028759;28;20326;-76
2021/05/14 08:50:27;;;;;;;0.60;0.60;;;13.10;66.30;;;;;;5021845;28;20057;-77
2021/05/14 08:52:52;;;;;;;0.63;0.63;;;13.00;68.00;;;;;;5036590;28;20117;-76
2021/05/14 08:55:23;;;;;;;1.08;0.70;;;12.90;65.30;;;;;;5022795;28;20417;-76
2021/05/14 08:57:49;;;;;;;0.70;0.70;;;13.00;69.30;;;;;;5022948;28;20393;-76
2021/05/14 09:00:16;;;;;;;0.90;0.52;;;13.20;67.80;;;;;;5024576;28;20504;-76
2021/05/14 09:02:42;;;;;;;0.52;0.52;;;13.30;66.50;;;;;;5006931;28;20052;-76
2021/05/14 09:05:27;;;;;;;0.70;0.70;;;13.60;64.90;;;;;;5024891;28;20543;-76
2021/05/14 09:07:55;;;;;;;0.50;0.50;;;13.80;66.10;;;;;;5024444;28;20021;-76
2021/05/14 09:10:22;;;;;;;0.55;0.55;;;14.00;65.40;;;;;;5020101;28;20554;-76
2021/05/14 09:12:48;;;;;;;0.50;0.50;;;14.10;64.50;;;;;;5021673;28;20140;-76
2021/05/14 09:15:23;;;;;;;1.45;0.70;;;14.30;63.00;;;;;;5020896;28;20520;-77
2021/05/14 09:18:17;;;;;;;1.63;0.57;;;14.30;65.30;;;;;;5021138;28;20036;-76
2021/05/14 09:20:45;;;;;;;0.95;0.63;;;14.20;58.90;;;;;;5015363;28;20029;-77
2021/05/14 09:23:20;;;;;;;0.90;0.52;;;14.00;61.30;;;;;;5021479;28;20085;-77
2021/05/14 09:26:02;;;;;;;0.82;0.50;;;13.90;62.20;;;;;;5021206;28;20571;-76
2021/05/14 09:28:40;;;;;;;0.57;0.55;;;13.80;64.60;;;;;;5023087;28;20025;-77
2021/05/14 09:31:15;;;;;;;1.30;0.50;;;13.80;64.20;;;;;;5024495;28;20057;-77
2021/05/14 09:33:43;;;;;;;0.40;0.40;;;13.90;62.30;;;;;;5023314;28;20036;-77
2021/05/14 09:36:12;;;;;;;1.65;0.40;;;13.80;63.50;;;;;;5023258;28;20037;-75
2021/05/14 09:38:58;;;;;;;;;;;13.70;61.10;;;;;;5017522;28;20057;-76
2021/05/14 09:41:43;;;;;;;0.40;0.40;;;13.70;64.70;;;;;;5013438;28;21444;-75
2021/05/14 09:44:11;;;;;;;0.50;0.50;;;13.90;64.00;;;;;;5018625;28;20527;-76
2021/05/14 09:46:45;;;;;;;0.22;0.22;;;14.00;60.60;;;;;;5010451;28;20837;-76
2021/05/14 09:49:17;;;;;;;0.40;0.40;;;14.10;58.20;;;;;;5006149;28;20551;-77
2021/05/14 09:51:51;;;;;;;0.50;0.50;;;14.20;60.90;;;;;;5009218;28;20034;-77
2021/05/14 09:54:36;;;;;;;0.65;0.55;;;14.30;61.50;;;;;;5006703;28;20037;-77
2021/05/14 09:57:06;;;;;;;2.05;0.60;;;14.50;60.90;;;;;;5007673;28;20415;-77
2021/05/14 09:59:32;;;;;;;0.32;0.32;;;14.60;60.60;;;;;;5011327;28;20025;-76
2021/05/14 10:01:58;;;;;;;0.30;0.30;;;14.40;59.30;;;;;;5007925;28;20042;-76
2021/05/14 10:04:28;;;;;;;0.38;0.38;;;14.30;60.00;;;;;;5008887;28;20084;-76
2021/05/14 10:06:57;;;;;;;0.70;0.50;;;14.30;60.60;;;;;;5013461;28;20033;-75
2021/05/14 10:09:25;;;;;;;1.50;0.40;;;14.50;61.80;;;;;;5009457;28;20021;-75
2021/05/14 10:11:51;;;;;;;0.40;0.40;;;14.70;62.30;;;;;;5009212;28;20041;-76
2021/05/14 10:14:17;;;;;;;0.30;0.30;;;14.70;59.50;;;;;;5009141;28;20466;-76
2021/05/14 10:16:43;;;;;;;0.47;0.43;;;14.80;57.10;;;;;;5010853;28;20038;-76
2021/05/14 10:19:09;;;;;;;1.67;0.50;;;14.80;60.30;;;;;;5013370;28;20541;-75
2021/05/14 10:21:35;;;;;;;0.65;0.38;;;14.70;57.50;;;;;;5008508;28;20029;-75
2021/05/14 10:24:00;;;;;;;0.43;0.40;;;14.80;58.20;;;;;;5009281;28;20946;-76
2021/05/14 10:26:46;;;;;;;0.20;0.20;;;15.00;62.00;;;;;;5009814;28;20191;-75
2021/05/14 10:29:13;;;;;;;0.82;0.35;;;15.00;55.10;;;;;;5016880;28;20038;-77
2021/05/14 10:31:46;;;;;;;0.40;0.40;;;14.90;56.70;;;;;;5019459;28;20048;-76
2021/05/14 10:34:14;;;;;;;0.40;0.40;;;14.80;57.70;;;;;;5027532;28;20025;-77
2021/05/14 10:36:47;;;;;;;0.40;0.40;;;14.90;54.90;;;;;;5021739;28;20357;-77
2021/05/14 10:39:16;;;;;;;0.40;0.40;;;14.80;57.50;;;;;;5029122;28;20563;-76
2021/05/14 10:41:55;;;;;;;0.57;0.30;;;14.90;58.50;;;;;;5041292;28;20376;-77
2021/05/14 10:44:48;;;;;;;0.30;0.30;;;15.10;59.00;;;;;;5022607;28;20026;-76
2021/05/14 10:47:25;;;;;;;0.20;0.20;;;15.40;58.90;;;;;;5018404;28;20484;-76
2021/05/14 10:49:56;;;;;;;0.40;0.40;;;15.40;56.30;;;;;;5017212;28;20112;-76
2021/05/14 10:52:21;;;;;;;0.30;0.30;;;15.40;55.20;;;;;;5023211;28;20072;-76
2021/05/14 10:54:51;;;;;;;0.40;0.40;;;15.60;57.60;;;;;;5029172;28;20060;-77
2021/05/14 10:57:38;;;;;;;1.65;0.50;;;15.50;54.40;;;;;;5021207;28;20391;-77
2021/05/14 11:00:22;;;;;;;1.38;0.35;;;15.20;56.50;;;;;;5019516;28;20147;-76
2021/05/14 11:03:10;;;;;;;0.30;0.30;;;15.20;57.20;;;;;;5022973;28;20076;-77
2021/05/14 11:05:39;;;;;;;1.25;0.43;;;15.20;60.00;;;;;;5028110;28;20014;-76
2021/05/14 11:08:04;;;;;;;0.90;0.35;;;15.20;55.70;;;;;;5020268;28;20032;-76
2021/05/14 11:10:35;;;;;;;0.20;0.20;;;15.20;56.10;;;;;;5032476;28;20029;-75
2021/05/14 11:13:49;;;;;;;1.35;0.30;;;15.40;54.00;;;;;;5031555;28;20037;-75
2021/05/14 11:16:45;;;;;;;0.28;0.28;;;15.50;56.10;;;;;;5015640;28;20041;-76
2021/05/14 11:19:30;;;;;;;1.27;0.32;;;15.70;56.90;;;;;;5026680;28;20079;-77
2021/05/14 11:22:05;;;;;;;0.60;0.40;;;15.80;58.00;;;;;;5030308;28;20037;-77
2021/05/14 11:25:00;;;;;;;0.32;0.32;;;15.60;57.00;;;;;;5024051;28;20691;-76
2021/05/14 11:27:34;;;;;;;1.15;0.88;;;15.70;57.10;;;;;;5018909;28;20021;-76
2021/05/14 11:30:02;;;;;;;0.40;0.40;;;15.80;57.10;;;;;;5022444;28;20624;-76
2021/05/14 11:32:34;;;;;;;0.30;0.30;;;15.80;54.30;;;;;;5021817;28;20041;-77
2021/05/14 11:35:03;;;;;;;0.30;0.30;;;15.60;53.40;;;;;;5024030;28;20120;-77
2021/05/14 11:37:33;;;;;;;0.85;0.22;;;15.50;53.60;;;;;;5027871;28;20608;-77
2021/05/14 11:40:06;;;;;;;0.22;0.22;;;15.70;54.60;;;;;;5030853;28;20040;-77
2021/05/14 11:42:37;;;;;;;0.50;0.43;;;15.70;55.80;;;;;;5016427;28;20053;-76
2021/05/14 11:45:09;;;;;;;0.20;0.20;;;15.70;55.50;;;;;;5014975;28;20033;-78
2021/05/14 11:47:35;;;;;;;0.40;0.22;;;15.80;56.30;;;;;;5025991;28;20064;-77
2021/05/14 11:50:02;;;;;;;0.32;0.32;;;15.90;57.40;;;;;;5027654;28;20058;-77
2021/05/14 11:52:42;;;;;;;0.30;0.30;;;16.00;54.60;;;;;;5028412;28;20028;-77
2021/05/14 11:55:13;;;;;;;0.52;0.40;;;16.00;53.50;;;;;;5030937;28;20036;-76
2021/05/14 11:57:40;;;;;;;0.43;0.20;;;16.00;52.80;;;;;;5024575;28;20029;-77
2021/05/14 12:00:09;;;;;;;0.55;0.40;;;16.00;56.10;;;;;;5029540;28;20099;-77
2021/05/14 12:02:37;;;;;;;0.30;0.30;;;16.00;54.10;;;;;;5033072;28;20063;-77
2021/05/14 12:05:04;;;;;;;0.30;0.30;;;16.00;54.50;;;;;;5032783;28;20068;-76
2021/05/14 12:07:30;;;;;;;0.63;0.30;;;16.00;55.00;;;;;;5029658;28;20028;-77
2021/05/14 12:10:16;;;;;;;0.82;0.30;;;16.00;53.20;;;;;;5024010;28;20033;-77
2021/05/14 12:12:42;;;;;;;0.70;0.45;;;16.00;54.30;;;;;;5014605;28;20029;-77
2021/05/14 12:15:15;;;;;;;0.25;0.25;;;16.10;55.10;;;;;;5025268;28;20030;-77
2021/05/14 12:17:42;;;;;;;0.40;0.38;;;16.10;52.90;;;;;;5021943;28;20047;-76
2021/05/14 12:20:32;;;;;;;0.73;0.30;;;16.20;51.10;;;;;;5026987;28;20033;-76
2021/05/14 12:23:00;;;;;;;0.85;0.40;;;16.10;52.60;;;;;;5016058;28;20093;-76
2021/05/14 12:25:28;;;;;;;0.20;0.20;;;15.80;50.10;;;;;;5029554;28;20024;-77
2021/05/14 12:27:56;;;;;;;0.30;0.30;;;15.70;52.20;;;;;;5028314;28;20121;-76
2021/05/14 12:30:32;;;;;;;0.85;0.30;;;15.70;54.60;;;;;;5028676;28;20096;-77
2021/05/14 12:32:59;;;;;;;0.43;0.30;;;15.70;56.40;;;;;;5023030;28;20040;-77
2021/05/14 12:35:25;;;;;;;0.20;0.20;;;15.70;53.10;;;;;;5024655;28;20028;-77
2021/05/14 12:37:53;;;;;;;0.30;0.30;;;15.50;50.70;;;;;;5019743;28;20441;-76
2021/05/14 12:40:33;;;;;;;;;;;15.50;52.60;;;;;;5017349;28;21046;-77
2021/05/14 12:43:07;;;;;;;0.55;0.40;;;15.50;52.40;;;;;;5019192;28;19917;-76
2021/05/14 12:45:35;;;;;;;0.25;0.25;;;15.50;53.20;;;;;;5012505;28;20144;-77
2021/05/14 12:48:02;;;;;;;0.55;0.52;;;15.50;55.10;;;;;;5010709;28;20033;-76
2021/05/14 12:50:28;;;;;;;0.20;0.20;;;15.60;56.20;;;;;;5020966;28;20069;-77
2021/05/14 12:52:53;;;;;;;0.88;0.40;;;15.70;52.40;;;;;;5021965;28;20057;-76
2021/05/14 12:55:20;;;;;;;0.22;0.22;;;15.60;55.60;;;;;;5018879;28;20025;-76
2021/05/14 12:57:49;;;;;;;1.17;0.50;;;15.70;55.50;;;;;;5028918;28;20025;-76
2021/05/14 13:00:26;;;;;;;1.23;0.70;;;15.70;56.30;;;;;;5022215;28;20499;-77